M.izmir — 9HLE8 — position and weather

sailwx.info

Track history (hours):
 
Tides and Currents Weather Stations Pressure Air Temp Water Temp Dewpoint Dewpoint Depression Visibility Wind Speed Wind Dir Waves Ship Positions

M.izmir

Last reported at 2017-Nov-19 18:16 UTC. Time now 2017-Nov-20 19:06 UTC.
Position N 36°02' E 030°31'.

Length 112 m; draft 6.4 m.

Type: Cargo ship. MMSI: 256109000.

Date/timePositionNaut miles runAvg speedWind from/ knotsBaromVisibWave heightAir tempDewpointWater temp
2017-Nov-19 18:16N 36°02' E 030°31'310.1
2017-Nov-19 18:00N 36°02' E 030°28'304 6.0
2017-Nov-17 15:14N 40°53' E 028°32'1010.2
2017-Nov-17 14:14N 40°55' E 028°45'6 9.1
2017-Nov-17 13:31N 40°57' E 028°53'1 0.2
2017-Nov-17 10:39N 40°57' E 028°54'1 4.5
2017-Nov-17 10:27N 40°57' E 028°55'4 7.5
2017-Nov-17 09:59N 40°59' E 028°59'326 8.1
2017-Nov-15 17:35N 46°16' E 030°45'110.3
2017-Nov-15 17:26N 46°17' E 030°45'3 7.6
2017-Nov-15 16:59N 46°19' E 030°41'1 0.0
2017-Nov-14 16:58N 46°19' E 030°40'0 0.0
2017-Nov-14 16:30N 46°19' E 030°40'0 0.0
2017-Nov-14 15:59N 46°19' E 030°40'0 0.0
2017-Nov-14 14:52N 46°19' E 030°40'0 0.0
2017-Nov-14 13:54N 46°19' E 030°40'0 0.0
2017-Nov-14 12:54N 46°19' E 030°40'0 0.0
2017-Nov-14 11:59N 46°19' E 030°40'0 0.0
2017-Nov-14 05:56N 46°19' E 030°40'0 0.0
2017-Nov-14 05:14N 46°19' E 030°40'0 0.0
2017-Nov-14 05:00N 46°19' E 030°40'0 0.0
2017-Nov-14 04:02N 46°19' E 030°40'0 0.0
2017-Nov-14 04:00N 46°19' E 030°40'0 0.0
2017-Nov-13 01:58N 46°19' E 030°40'0 0.0
2017-Nov-13 01:30N 46°19' E 030°40'0 0.0
2017-Nov-13 01:00N 46°19' E 030°40'0 0.0
2017-Nov-13 00:30N 46°19' E 030°40'0 0.0
2017-Nov-12 23:59N 46°19' E 030°40'0 0.0
2017-Nov-12 23:30N 46°19' E 030°40'0 0.0
2017-Nov-12 23:00N 46°19' E 030°40'0 0.0
2017-Nov-12 22:30N 46°19' E 030°40'0 0.0
2017-Nov-12 21:59N 46°19' E 030°40'0 0.0
2017-Nov-12 21:31N 46°19' E 030°40'0 0.0
2017-Nov-12 20:59N 46°19' E 030°40'0 0.0
2017-Nov-12 20:30N 46°19' E 030°40'0 0.0
2017-Nov-12 19:59N 46°19' E 030°40'0 0.0
2017-Nov-12 19:30N 46°19' E 030°40'0 0.0
2017-Nov-12 18:59N 46°19' E 030°40'0 0.0
2017-Nov-12 16:46N 46°19' E 030°40'0 0.0
2017-Nov-12 15:59N 46°19' E 030°40'0 0.0
2017-Nov-12 14:53N 46°19' E 030°40'0 0.0
2017-Nov-12 11:52N 46°19' E 030°40'0 0.0
2017-Nov-12 11:30N 46°19' E 030°40'0 0.0
2017-Nov-12 10:57N 46°19' E 030°40'0 0.0
2017-Nov-12 09:51N 46°19' E 030°40'0 0.0
2017-Nov-12 09:20N 46°19' E 030°40'0 0.0
2017-Nov-12 08:58N 46°19' E 030°40'0 0.0
2017-Nov-12 08:30N 46°19' E 030°40'0 0.0
2017-Nov-12 07:57N 46°19' E 030°40'0 0.0
2017-Nov-12 06:55N 46°19' E 030°40'0 0.0
2017-Nov-12 05:59N 46°19' E 030°40'0 0.0
2017-Nov-12 05:30N 46°19' E 030°40'0 0.0
2017-Nov-12 05:00N 46°19' E 030°40'0 0.0
2017-Nov-12 04:30N 46°19' E 030°40'0 0.0
2017-Nov-12 04:00N 46°19' E 030°40'0 0.0
2017-Nov-12 03:30N 46°19' E 030°40'0 0.0
2017-Nov-12 03:00N 46°19' E 030°40'0 0.0
2017-Nov-12 02:31N 46°19' E 030°40'0 0.0
2017-Nov-12 02:00N 46°19' E 030°40'0 0.0
2017-Nov-12 01:30N 46°19' E 030°40'0 0.0
2017-Nov-12 01:00N 46°19' E 030°40'0 0.0
2017-Nov-11 20:55N 46°19' E 030°40'0 0.0
2017-Nov-11 19:58N 46°19' E 030°40'0 0.0
2017-Nov-11 18:53N 46°19' E 030°40'0 0.0
2017-Nov-11 17:59N 46°19' E 030°40'0 0.0
2017-Nov-11 16:58N 46°19' E 030°40'0 0.0
2017-Nov-11 14:55N 46°19' E 030°40'0 0.0
2017-Nov-11 13:51N 46°19' E 030°40'0 0.0
2017-Nov-11 11:55N 46°19' E 030°40'0 0.0
2017-Nov-11 10:56N 46°19' E 030°40'0 0.0
2017-Nov-11 09:59N 46°19' E 030°40'2 2.4
2017-Nov-11 08:58N 46°19' E 030°43'  
Track history (hours):
 
Tides and Currents Weather Stations Pressure Air Temp Water Temp Dewpoint Dewpoint Depression Visibility Wind Speed Wind Dir Waves Ship Positions

M.izmir

Last reported at 2017-Nov-19 18:16 UTC. Time now 2017-Nov-20 19:06 UTC.
Position N 36°02' E 030°31'.

Length 112 m; draft 6.4 m.

Type: Cargo ship. MMSI: 256109000.

Date/timePositionNaut miles runAvg speedWind from/ knotsBaromVisibWave heightAir tempDewpointWater temp
2017-Nov-19 18:16N 36°02' E 030°31'310.1
2017-Nov-19 18:00N 36°02' E 030°28'304 6.0
2017-Nov-17 15:14N 40°53' E 028°32'1010.2
2017-Nov-17 14:14N 40°55' E 028°45'6 9.1
2017-Nov-17 13:31N 40°57' E 028°53'1 0.2
2017-Nov-17 10:39N 40°57' E 028°54'1 4.5
2017-Nov-17 10:27N 40°57' E 028°55'4 7.5
2017-Nov-17 09:59N 40°59' E 028°59'326 8.1
2017-Nov-15 17:35N 46°16' E 030°45'110.3
2017-Nov-15 17:26N 46°17' E 030°45'3 7.6
2017-Nov-15 16:59N 46°19' E 030°41'1 0.0
2017-Nov-14 16:58N 46°19' E 030°40'0 0.0
2017-Nov-14 16:30N 46°19' E 030°40'0 0.0
2017-Nov-14 15:59N 46°19' E 030°40'0 0.0
2017-Nov-14 14:52N 46°19' E 030°40'0 0.0
2017-Nov-14 13:54N 46°19' E 030°40'0 0.0
2017-Nov-14 12:54N 46°19' E 030°40'0 0.0
2017-Nov-14 11:59N 46°19' E 030°40'0 0.0
2017-Nov-14 05:56N 46°19' E 030°40'0 0.0
2017-Nov-14 05:14N 46°19' E 030°40'0 0.0
2017-Nov-14 05:00N 46°19' E 030°40'0 0.0
2017-Nov-14 04:02N 46°19' E 030°40'0 0.0
2017-Nov-14 04:00N 46°19' E 030°40'0 0.0
2017-Nov-13 01:58N 46°19' E 030°40'0 0.0
2017-Nov-13 01:30N 46°19' E 030°40'0 0.0
2017-Nov-13 01:00N 46°19' E 030°40'0 0.0
2017-Nov-13 00:30N 46°19' E 030°40'0 0.0
2017-Nov-12 23:59N 46°19' E 030°40'0 0.0
2017-Nov-12 23:30N 46°19' E 030°40'0 0.0
2017-Nov-12 23:00N 46°19' E 030°40'0 0.0
2017-Nov-12 22:30N 46°19' E 030°40'0 0.0
2017-Nov-12 21:59N 46°19' E 030°40'0 0.0
2017-Nov-12 21:31N 46°19' E 030°40'0 0.0
2017-Nov-12 20:59N 46°19' E 030°40'0 0.0
2017-Nov-12 20:30N 46°19' E 030°40'0 0.0
2017-Nov-12 19:59N 46°19' E 030°40'0 0.0
2017-Nov-12 19:30N 46°19' E 030°40'0 0.0
2017-Nov-12 18:59N 46°19' E 030°40'0 0.0
2017-Nov-12 16:46N 46°19' E 030°40'0 0.0
2017-Nov-12 15:59N 46°19' E 030°40'0 0.0
2017-Nov-12 14:53N 46°19' E 030°40'0 0.0
2017-Nov-12 11:52N 46°19' E 030°40'0 0.0
2017-Nov-12 11:30N 46°19' E 030°40'0 0.0
2017-Nov-12 10:57N 46°19' E 030°40'0 0.0
2017-Nov-12 09:51N 46°19' E 030°40'0 0.0
2017-Nov-12 09:20N 46°19' E 030°40'0 0.0
2017-Nov-12 08:58N 46°19' E 030°40'0 0.0
2017-Nov-12 08:30N 46°19' E 030°40'0 0.0
2017-Nov-12 07:57N 46°19' E 030°40'0 0.0
2017-Nov-12 06:55N 46°19' E 030°40'0 0.0
2017-Nov-12 05:59N 46°19' E 030°40'0 0.0
2017-Nov-12 05:30N 46°19' E 030°40'0 0.0
2017-Nov-12 05:00N 46°19' E 030°40'0 0.0
2017-Nov-12 04:30N 46°19' E 030°40'0 0.0
2017-Nov-12 04:00N 46°19' E 030°40'0 0.0
2017-Nov-12 03:30N 46°19' E 030°40'0 0.0
2017-Nov-12 03:00N 46°19' E 030°40'0 0.0
2017-Nov-12 02:31N 46°19' E 030°40'0 0.0
2017-Nov-12 02:00N 46°19' E 030°40'0 0.0
2017-Nov-12 01:30N 46°19' E 030°40'0 0.0
2017-Nov-12 01:00N 46°19' E 030°40'0 0.0
2017-Nov-11 20:55N 46°19' E 030°40'0 0.0
2017-Nov-11 19:58N 46°19' E 030°40'0 0.0
2017-Nov-11 18:53N 46°19' E 030°40'0 0.0
2017-Nov-11 17:59N 46°19' E 030°40'0 0.0
2017-Nov-11 16:58N 46°19' E 030°40'0 0.0
2017-Nov-11 14:55N 46°19' E 030°40'0 0.0
2017-Nov-11 13:51N 46°19' E 030°40'0 0.0
2017-Nov-11 11:55N 46°19' E 030°40'0 0.0
2017-Nov-11 10:56N 46°19' E 030°40'0 0.0
2017-Nov-11 09:59N 46°19' E 030°40'2 2.4
2017-Nov-11 08:58N 46°19' E 030°43'  

Dump ship's entire track history